createdAt,value
2022-10-06T00:00:40.111Z,1017.16
2022-10-06T00:01:40.080Z,1017.18
2022-10-06T00:02:40.063Z,1017.21
2022-10-06T00:03:39.985Z,1017.32
2022-10-06T00:04:39.944Z,1017.37
2022-10-06T00:05:39.902Z,1017.33
2022-10-06T00:06:39.875Z,1017.33
2022-10-06T00:07:39.822Z,1017.34
2022-10-06T00:08:39.790Z,1017.34
2022-10-06T00:09:39.749Z,1017.33
2022-10-06T00:10:39.701Z,1017.38
2022-10-06T00:11:39.664Z,1017.37
2022-10-06T00:12:39.638Z,1017.34
2022-10-06T00:13:39.588Z,1017.31
2022-10-06T00:14:39.547Z,1017.28
2022-10-06T00:15:39.549Z,1017.36
2022-10-06T00:16:39.465Z,1017.40
2022-10-06T00:17:39.426Z,1017.39
2022-10-06T00:18:39.400Z,1017.39
2022-10-06T00:19:39.347Z,1017.38
2022-10-06T00:20:39.309Z,1017.41
2022-10-06T00:21:39.271Z,1017.40
2022-10-06T00:22:39.226Z,1017.38
2022-10-06T00:23:39.188Z,1017.44
2022-10-06T00:24:39.159Z,1017.41
2022-10-06T00:25:39.111Z,1017.45
2022-10-06T00:26:39.068Z,1017.47
2022-10-06T00:27:39.028Z,1017.48
2022-10-06T00:28:39.025Z,1017.47
2022-10-06T00:29:38.952Z,1017.49
2022-10-06T00:30:38.919Z,1017.51
2022-10-06T00:31:38.869Z,1017.52
2022-10-06T00:32:38.834Z,1017.52
2022-10-06T00:33:38.793Z,1017.49
2022-10-06T00:34:38.753Z,1017.55
2022-10-06T00:35:38.714Z,1017.53
2022-10-06T00:36:38.691Z,1017.59
2022-10-06T00:37:38.635Z,1017.59
2022-10-06T00:38:38.594Z,1017.59
2022-10-06T00:39:38.556Z,1017.60
2022-10-06T00:40:38.515Z,1017.66
2022-10-06T00:41:38.482Z,1017.66
2022-10-06T00:42:38.447Z,1017.64
2022-10-06T00:43:38.399Z,1017.66
2022-10-06T00:44:38.359Z,1017.73
2022-10-06T00:45:38.322Z,1017.69
2022-10-06T00:46:38.365Z,1017.72
2022-10-06T00:47:38.252Z,1017.80
2022-10-06T00:48:38.206Z,1017.77
2022-10-06T00:49:38.157Z,1017.78
2022-10-06T00:50:38.122Z,1017.75
2022-10-06T00:51:38.196Z,1017.75
2022-10-06T00:52:38.039Z,1017.82
2022-10-06T00:53:38.010Z,1017.77
2022-10-06T00:54:37.960Z,1017.79
2022-10-06T00:55:37.918Z,1017.82
2022-10-06T00:56:37.879Z,1017.85
2022-10-06T00:57:37.842Z,1017.87
2022-10-06T00:58:37.799Z,1017.95
2022-10-06T00:59:37.777Z,1017.92
2022-10-06T01:00:37.719Z,1017.91
2022-10-06T01:01:37.749Z,1017.92
2022-10-06T01:02:37.736Z,1017.95
2022-10-06T01:03:37.601Z,1018.00
2022-10-06T01:04:37.560Z,1017.97
2022-10-06T01:05:37.534Z,1017.96
2022-10-06T01:06:37.481Z,1017.97
2022-10-06T01:07:37.442Z,1018.05
2022-10-06T01:08:37.402Z,1018.04
2022-10-06T01:09:37.364Z,1018.09
2022-10-06T01:10:37.322Z,1018.06
2022-10-06T01:11:37.296Z,1018.07
2022-10-06T01:12:37.241Z,1018.07
2022-10-06T01:13:37.205Z,1018.03
2022-10-06T01:14:37.163Z,1018.02
2022-10-06T01:15:37.161Z,1018.38
2022-10-06T01:16:37.083Z,1018.36
2022-10-06T01:17:37.063Z,1018.44
2022-10-06T01:18:37.004Z,1018.47
2022-10-06T01:19:36.963Z,1018.18
2022-10-06T01:20:36.929Z,1018.21
2022-10-06T01:21:36.892Z,1018.22
2022-10-06T01:22:36.843Z,1018.19
2022-10-06T01:23:36.821Z,1018.25
2022-10-06T01:24:36.765Z,1018.25
2022-10-06T01:25:36.725Z,1018.30
2022-10-06T01:26:36.685Z,1018.28
2022-10-06T01:27:36.647Z,1018.27
2022-10-06T01:28:36.660Z,1018.63
2022-10-06T01:29:36.577Z,1018.28
2022-10-06T01:30:36.525Z,1018.30
2022-10-06T01:31:36.507Z,1018.35
2022-10-06T01:32:36.446Z,1018.44
2022-10-06T01:33:36.410Z,1018.27
2022-10-06T01:34:36.368Z,1018.31
2022-10-06T01:35:36.336Z,1018.37
2022-10-06T01:36:36.284Z,1018.41
2022-10-06T01:37:36.246Z,1018.40
2022-10-06T01:38:36.205Z,1018.74
2022-10-06T01:39:36.166Z,1018.65
2022-10-06T01:40:36.126Z,1018.80
2022-10-06T01:41:36.098Z,1018.50
2022-10-06T01:42:36.043Z,1018.51
2022-10-06T01:43:36.004Z,1018.50
2022-10-06T01:44:35.971Z,1018.50
2022-10-06T01:45:35.938Z,1018.54
2022-10-06T01:46:35.926Z,1018.53
2022-10-06T01:47:35.859Z,1018.55
2022-10-06T01:48:35.816Z,1018.57
2022-10-06T01:49:35.764Z,1018.51
2022-10-06T01:50:35.724Z,1018.50
2022-10-06T01:51:35.689Z,1018.45
2022-10-06T01:52:35.652Z,1018.45
2022-10-06T01:53:35.616Z,1018.49
2022-10-06T01:54:35.564Z,1018.46
2022-10-06T01:55:35.523Z,1018.47
2022-10-06T01:56:35.486Z,1018.51
2022-10-06T01:57:35.444Z,1018.52
2022-10-06T01:58:35.404Z,1018.50
2022-10-06T01:59:35.370Z,1018.56
2022-10-06T02:00:35.336Z,1018.55
2022-10-06T02:01:35.346Z,1018.56
2022-10-06T02:02:35.245Z,1018.63
2022-10-06T02:03:35.204Z,1018.61
2022-10-06T02:04:35.165Z,1018.63
2022-10-06T02:05:35.129Z,1018.63
2022-10-06T02:06:35.195Z,1018.64
2022-10-06T02:07:35.043Z,1018.61
2022-10-06T02:08:35.003Z,1018.65
2022-10-06T02:09:35.030Z,1018.70
2022-10-06T02:10:35.159Z,1018.68
2022-10-06T02:11:34.883Z,1018.67
2022-10-06T02:12:34.883Z,1018.69
2022-10-06T02:13:34.807Z,1018.71
2022-10-06T02:14:34.778Z,1018.70
2022-10-06T02:15:34.787Z,1018.69
2022-10-06T02:16:34.684Z,1018.71
2022-10-06T02:17:34.644Z,1018.71
2022-10-06T02:18:34.615Z,1018.77
2022-10-06T02:19:34.563Z,1018.75
2022-10-06T02:20:34.528Z,1018.79
2022-10-06T02:21:34.480Z,1018.82
2022-10-06T02:22:34.443Z,1018.88
2022-10-06T02:23:34.402Z,1018.86
2022-10-06T02:24:34.375Z,1018.86
2022-10-06T02:25:34.320Z,1018.86
2022-10-06T02:26:34.289Z,1018.84
2022-10-06T02:27:34.239Z,1018.90
2022-10-06T02:28:34.588Z,1018.91
2022-10-06T02:29:34.159Z,1018.97
2022-10-06T02:30:34.135Z,1018.97
2022-10-06T02:31:34.107Z,1018.97
2022-10-06T02:32:34.039Z,1018.98
2022-10-06T02:33:33.997Z,1019.33
2022-10-06T02:34:33.962Z,1018.97
2022-10-06T02:35:33.919Z,1018.96
2022-10-06T02:36:33.892Z,1019.03
2022-10-06T02:37:33.840Z,1018.97
2022-10-06T02:38:33.799Z,1019.02
2022-10-06T02:39:33.757Z,1019.05
2022-10-06T02:40:33.719Z,1019.11
2022-10-06T02:41:33.680Z,1019.49
2022-10-06T02:42:33.653Z,1019.22
2022-10-06T02:43:33.600Z,1019.18
2022-10-06T02:44:33.559Z,1019.17
2022-10-06T02:45:33.597Z,1019.12
2022-10-06T02:46:42.530Z,1019.15
2022-10-06T02:47:33.437Z,1019.18
2022-10-06T02:48:33.411Z,1019.21
2022-10-06T02:49:33.357Z,1019.13
2022-10-06T02:50:33.319Z,1019.19
2022-10-06T02:51:33.277Z,1019.22
2022-10-06T02:52:33.239Z,1019.20
2022-10-06T02:53:33.197Z,1019.23
2022-10-06T02:54:33.220Z,1019.25
2022-10-06T02:55:33.116Z,1019.28
2022-10-06T02:56:33.076Z,1019.25
2022-10-06T02:57:33.039Z,1019.29
2022-10-06T02:58:33.027Z,1019.29
2022-10-06T02:59:32.955Z,1019.32
2022-10-06T03:00:32.992Z,1019.50
2022-10-06T03:01:32.912Z,1019.36
2022-10-06T03:02:32.932Z,1019.38
2022-10-06T03:03:32.797Z,1019.43
2022-10-06T03:04:32.756Z,1019.47
2022-10-06T03:05:32.715Z,1019.80
2022-10-06T03:06:32.685Z,1019.72
2022-10-06T03:07:32.633Z,1019.44
2022-10-06T03:08:32.715Z,1019.43
2022-10-06T03:09:32.581Z,1019.47
2022-10-06T03:10:32.517Z,1019.78
2022-10-06T03:11:32.492Z,1019.55
2022-10-06T03:12:32.441Z,1019.48
2022-10-06T03:13:32.396Z,1019.50
2022-10-06T03:14:32.360Z,1019.83
2022-10-06T03:15:32.315Z,1019.54
2022-10-06T03:16:32.396Z,1019.50
2022-10-06T03:17:32.248Z,1019.85
2022-10-06T03:18:32.571Z,1019.95
2022-10-06T03:19:32.154Z,1019.62
2022-10-06T03:20:32.115Z,1019.63
2022-10-06T03:21:32.081Z,1019.70
2022-10-06T03:22:32.049Z,1019.68
2022-10-06T03:23:31.995Z,1020.06
2022-10-06T03:24:31.966Z,1019.75
2022-10-06T03:25:31.914Z,1019.78
2022-10-06T03:26:31.889Z,1019.77
2022-10-06T03:27:31.842Z,1019.80
2022-10-06T03:28:32.443Z,1019.77
2022-10-06T03:29:31.754Z,1020.17
2022-10-06T03:30:31.722Z,1020.14
2022-10-06T03:31:31.714Z,1020.14
2022-10-06T03:32:31.634Z,1019.86
2022-10-06T03:33:31.599Z,1019.90
2022-10-06T03:34:31.566Z,1019.94
2022-10-06T03:35:31.517Z,1019.92
2022-10-06T03:36:31.472Z,1020.05
2022-10-06T03:37:31.432Z,1019.96
2022-10-06T03:38:31.745Z,1019.97
2022-10-06T03:39:31.357Z,1020.38
2022-10-06T03:40:31.326Z,1020.37
2022-10-06T03:41:31.273Z,1020.09
2022-10-06T03:42:31.232Z,1020.45
2022-10-06T03:43:31.189Z,1020.14
2022-10-06T03:44:31.151Z,1020.12
2022-10-06T03:45:31.109Z,1020.16
2022-10-06T03:46:31.111Z,1020.13
2022-10-06T03:47:31.029Z,1020.35
2022-10-06T03:48:31.528Z,1020.57
2022-10-06T03:49:30.960Z,1020.25
2022-10-06T03:50:30.914Z,1020.31
2022-10-06T03:51:30.872Z,1020.29
2022-10-06T03:52:30.831Z,1020.33
2022-10-06T03:53:30.789Z,1020.34
2022-10-06T03:54:30.762Z,1020.31
2022-10-06T03:55:30.709Z,1020.36
2022-10-06T03:56:30.669Z,1020.37
2022-10-06T03:57:30.628Z,1020.38
2022-10-06T03:58:31.005Z,1020.40
2022-10-06T03:59:30.564Z,1020.46
2022-10-06T04:00:30.518Z,1020.39
2022-10-06T04:01:30.504Z,1020.41
2022-10-06T04:02:30.510Z,1020.39
2022-10-06T04:03:30.396Z,1020.40
2022-10-06T04:04:30.348Z,1020.43
2022-10-06T04:05:30.304Z,1020.42
2022-10-06T04:06:30.274Z,1020.46
2022-10-06T04:07:30.224Z,1020.47
2022-10-06T04:08:30.610Z,1020.51
2022-10-06T04:09:30.142Z,1020.53
2022-10-06T04:10:30.106Z,1020.55
2022-10-06T04:11:30.061Z,1020.54
2022-10-06T04:12:30.036Z,1020.59
2022-10-06T04:13:29.982Z,1020.60
2022-10-06T04:14:29.956Z,1020.73
2022-10-06T04:15:29.904Z,1020.63
2022-10-06T04:16:29.903Z,1020.65
2022-10-06T04:17:29.830Z,1020.69
2022-10-06T04:18:30.039Z,1020.68
2022-10-06T04:19:29.747Z,1020.67
2022-10-06T04:20:29.700Z,1020.89
2022-10-06T04:21:29.662Z,1020.75
2022-10-06T04:22:29.620Z,1020.79
2022-10-06T04:23:29.591Z,1020.78
2022-10-06T04:24:29.538Z,1020.81
2022-10-06T04:25:29.499Z,1020.74
2022-10-06T04:26:29.463Z,1020.77
2022-10-06T04:27:29.418Z,1020.78
2022-10-06T04:28:29.647Z,1020.83
2022-10-06T04:29:29.336Z,1020.79
2022-10-06T04:30:29.303Z,1020.87
2022-10-06T04:31:29.333Z,1020.86
2022-10-06T04:32:29.217Z,1020.89
2022-10-06T04:33:29.183Z,1021.25
2022-10-06T04:34:29.145Z,1021.05
2022-10-06T04:35:29.095Z,1021.26
2022-10-06T04:36:29.056Z,1021.22
2022-10-06T04:37:29.019Z,1020.96
2022-10-06T04:38:29.309Z,1020.98
2022-10-06T04:39:28.946Z,1020.98
2022-10-06T04:40:28.891Z,1021.00
2022-10-06T04:41:28.850Z,1021.03
2022-10-06T04:42:33.946Z,1021.04
2022-10-06T04:43:28.769Z,1021.05
2022-10-06T04:44:28.729Z,1021.02
2022-10-06T04:45:28.746Z,1021.06
2022-10-06T04:46:44.968Z,1021.05
2022-10-06T04:47:28.607Z,1021.25
2022-10-06T04:48:28.878Z,1021.40
2022-10-06T04:49:28.529Z,1021.48
2022-10-06T04:50:28.487Z,1021.15
2022-10-06T04:51:28.455Z,1021.14
2022-10-06T04:52:28.505Z,1021.15
2022-10-06T04:53:28.365Z,1021.16
2022-10-06T04:54:33.389Z,1021.13
2022-10-06T04:55:28.282Z,1021.26
2022-10-06T04:56:28.245Z,1021.25
2022-10-06T04:57:28.216Z,1021.21
2022-10-06T04:58:28.535Z,1021.30
2022-10-06T04:59:28.121Z,1021.28
2022-10-06T05:00:28.082Z,1021.30
2022-10-06T05:01:28.086Z,1021.31
2022-10-06T05:02:28.028Z,1021.40
2022-10-06T05:03:27.970Z,1021.67
2022-10-06T05:04:27.934Z,1021.40
2022-10-06T05:05:27.878Z,1021.40
2022-10-06T05:06:27.839Z,1021.46
2022-10-06T05:07:27.795Z,1021.67
2022-10-06T05:08:28.265Z,1021.66
2022-10-06T05:09:27.734Z,1021.46
2022-10-06T05:10:27.674Z,1021.77
2022-10-06T05:11:27.635Z,1021.84
2022-10-06T05:12:27.595Z,1021.84
2022-10-06T05:13:27.561Z,1021.86
2022-10-06T05:14:27.512Z,1021.87
2022-10-06T05:15:27.491Z,1021.60
2022-10-06T05:16:27.488Z,1021.88
2022-10-06T05:17:27.393Z,1021.69
2022-10-06T05:18:27.759Z,1021.60
2022-10-06T05:19:27.321Z,1021.61
2022-10-06T05:20:27.269Z,1021.80
2022-10-06T05:21:27.230Z,1021.99
2022-10-06T05:22:27.187Z,1022.03
2022-10-06T05:23:27.168Z,1022.05
2022-10-06T05:24:27.113Z,1021.77
2022-10-06T05:25:27.112Z,1021.77
2022-10-06T05:26:27.030Z,1022.13
2022-10-06T05:27:26.983Z,1021.78
2022-10-06T05:28:27.534Z,1022.12
2022-10-06T05:29:26.907Z,1021.77
2022-10-06T05:30:26.862Z,1021.81
2022-10-06T05:31:26.901Z,1021.80
2022-10-06T05:32:26.783Z,1021.82
2022-10-06T05:33:26.739Z,1021.82
2022-10-06T05:34:26.705Z,1021.83
2022-10-06T05:35:26.658Z,1022.18
2022-10-06T05:36:26.618Z,1021.91
2022-10-06T05:37:26.591Z,1021.89
2022-10-06T05:38:27.072Z,1021.92
2022-10-06T05:39:26.500Z,1022.27
2022-10-06T05:40:26.456Z,1021.94
2022-10-06T05:41:26.416Z,1021.97
2022-10-06T05:42:29.691Z,1021.96
2022-10-06T05:43:26.347Z,1022.33
2022-10-06T05:44:26.290Z,1022.00
2022-10-06T05:45:26.252Z,1022.01
2022-10-06T05:46:26.210Z,1022.40
2022-10-06T05:47:26.170Z,1022.05
2022-10-06T05:48:26.661Z,1022.45
2022-10-06T05:49:26.100Z,1022.43
2022-10-06T05:50:26.045Z,1022.49
2022-10-06T05:51:30.294Z,1022.47
2022-10-06T05:52:25.964Z,1022.49
2022-10-06T05:53:25.926Z,1022.55
2022-10-06T05:54:25.884Z,1022.27
2022-10-06T05:55:25.850Z,1022.59
2022-10-06T05:56:25.806Z,1022.40
2022-10-06T05:57:25.758Z,1022.60
2022-10-06T05:58:25.719Z,1022.68
2022-10-06T05:59:25.681Z,1022.70
2022-10-06T06:00:25.637Z,1022.74
2022-10-06T06:01:25.763Z,1022.73
2022-10-06T06:02:25.613Z,1022.42
2022-10-06T06:03:25.517Z,1022.41
2022-10-06T06:04:25.474Z,1022.43
2022-10-06T06:05:25.437Z,1022.46
2022-10-06T06:06:25.398Z,1022.78
2022-10-06T06:07:25.387Z,1022.79
2022-10-06T06:08:25.324Z,1022.50
2022-10-06T06:09:25.271Z,1022.53
2022-10-06T06:10:25.228Z,1022.53
2022-10-06T06:11:25.190Z,1022.88
2022-10-06T06:12:25.154Z,1022.89
2022-10-06T06:13:25.120Z,1022.92
2022-10-06T06:14:25.066Z,1022.67
2022-10-06T06:15:25.024Z,1022.90
2022-10-06T06:16:25.019Z,1022.92
2022-10-06T06:17:24.963Z,1022.60
2022-10-06T06:18:24.901Z,1022.59
2022-10-06T06:19:28.944Z,1022.67
2022-10-06T06:20:24.855Z,1022.67
2022-10-06T06:21:24.779Z,1022.71
2022-10-06T06:22:24.738Z,1022.78
2022-10-06T06:23:24.706Z,1022.77
2022-10-06T06:24:24.666Z,1022.84
2022-10-06T06:25:24.617Z,1022.81
2022-10-06T06:26:24.575Z,1022.86
2022-10-06T06:27:24.536Z,1022.86
2022-10-06T06:28:24.548Z,1022.84
2022-10-06T06:29:24.466Z,1022.87
2022-10-06T06:30:24.417Z,1023.21
2022-10-06T06:31:24.399Z,1022.88
2022-10-06T06:32:24.334Z,1023.05
2022-10-06T06:33:24.300Z,1022.98
2022-10-06T06:34:24.254Z,1023.29
2022-10-06T06:35:24.227Z,1023.00
2022-10-06T06:36:24.174Z,1022.97
2022-10-06T06:37:24.140Z,1023.03
2022-10-06T06:38:24.100Z,1023.01
2022-10-06T06:39:24.059Z,1023.09
2022-10-06T06:40:24.015Z,1023.38
2022-10-06T06:41:23.992Z,1023.27
2022-10-06T06:42:23.949Z,1023.11
2022-10-06T06:43:23.904Z,1023.49
2022-10-06T06:44:23.864Z,1023.56
2022-10-06T06:45:23.823Z,1023.23
2022-10-06T06:46:23.974Z,1023.28
2022-10-06T06:47:25.931Z,1023.27
2022-10-06T06:48:23.716Z,1023.28
2022-10-06T06:49:23.675Z,1023.41
2022-10-06T06:50:23.639Z,1023.38
2022-10-06T06:51:23.592Z,1023.36
2022-10-06T06:52:23.553Z,1023.34
2022-10-06T06:53:23.534Z,1023.80
2022-10-06T06:54:23.476Z,1023.40
2022-10-06T06:55:23.444Z,1023.48
2022-10-06T06:56:23.399Z,1023.43
2022-10-06T06:57:23.364Z,1023.71
2022-10-06T06:58:23.326Z,1023.51
2022-10-06T06:59:23.301Z,1023.48
2022-10-06T07:00:23.357Z,1023.87
2022-10-06T07:01:23.269Z,1023.56
2022-10-06T07:02:23.204Z,1023.57
2022-10-06T07:03:44.930Z,1023.56
2022-10-06T07:04:23.114Z,1023.63
2022-10-06T07:05:23.080Z,1023.65
2022-10-06T07:06:27.100Z,1023.67
2022-10-06T07:07:22.993Z,1023.69
2022-10-06T07:08:22.956Z,1024.02
2022-10-06T07:09:22.923Z,1023.99
2022-10-06T07:10:22.895Z,1023.68
2022-10-06T07:11:22.848Z,1023.78
2022-10-06T07:12:22.813Z,1023.75
2022-10-06T07:13:25.609Z,1023.78
2022-10-06T07:14:22.746Z,1023.76
2022-10-06T07:15:22.706Z,1023.80
2022-10-06T07:16:22.680Z,1023.80
2022-10-06T07:17:22.635Z,1023.88
2022-10-06T07:18:22.613Z,1023.92
2022-10-06T07:19:24.828Z,1023.96
2022-10-06T07:20:22.526Z,1023.99
2022-10-06T07:21:22.494Z,1024.37
2022-10-06T07:22:22.464Z,1024.11
2022-10-06T07:23:22.417Z,1024.11
2022-10-06T07:24:22.381Z,1024.15
2022-10-06T07:25:25.756Z,1024.14
2022-10-06T07:26:22.313Z,1024.24
2022-10-06T07:27:22.277Z,1024.28
2022-10-06T07:28:22.325Z,1024.30
2022-10-06T07:29:22.212Z,1024.33
2022-10-06T07:30:22.171Z,1024.36
2022-10-06T07:31:22.216Z,1024.40
2022-10-06T07:32:22.136Z,1024.42
2022-10-06T07:33:22.078Z,1024.41
2022-10-06T07:34:22.031Z,1024.48
2022-10-06T07:35:21.999Z,1024.49
2022-10-06T07:36:21.976Z,1024.52
2022-10-06T07:37:21.929Z,1024.85
2022-10-06T07:38:21.903Z,1024.55
2022-10-06T07:39:21.860Z,1024.57
2022-10-06T07:40:21.824Z,1024.64
2022-10-06T07:41:21.789Z,1024.69
2022-10-06T07:42:21.764Z,1024.71
2022-10-06T07:43:21.729Z,1024.75
2022-10-06T07:44:21.684Z,1024.93
2022-10-06T07:45:21.652Z,1024.76
2022-10-06T07:46:21.662Z,1025.16
2022-10-06T07:47:21.584Z,1025.16
2022-10-06T07:48:21.564Z,1025.22
2022-10-06T07:49:21.515Z,1024.88
2022-10-06T07:50:21.481Z,1025.28
2022-10-06T07:51:21.455Z,1024.98
2022-10-06T07:52:21.411Z,1025.01
2022-10-06T07:53:21.379Z,1025.05
2022-10-06T07:54:26.504Z,1025.42
2022-10-06T07:55:21.312Z,1025.08
2022-10-06T07:56:21.279Z,1025.08
2022-10-06T07:57:21.244Z,1025.45
2022-10-06T07:58:21.208Z,1025.45
2022-10-06T07:59:21.175Z,1025.09
2022-10-06T08:00:21.207Z,1025.45
2022-10-06T08:01:21.149Z,1025.15
2022-10-06T08:02:21.104Z,1025.14
2022-10-06T08:03:21.139Z,1025.16
2022-10-06T08:04:21.004Z,1025.19
2022-10-06T08:05:20.973Z,1025.17
2022-10-06T08:06:20.946Z,1025.58
2022-10-06T08:07:20.906Z,1025.22
2022-10-06T08:08:20.871Z,1025.63
2022-10-06T08:09:20.838Z,1025.30
2022-10-06T08:10:20.813Z,1025.69
2022-10-06T08:11:20.771Z,1025.69
2022-10-06T08:12:20.747Z,1025.33
2022-10-06T08:13:20.704Z,1025.66
2022-10-06T08:14:20.667Z,1025.67
2022-10-06T08:15:20.643Z,1025.37
2022-10-06T08:16:20.670Z,1025.39
2022-10-06T08:17:20.570Z,1025.74
2022-10-06T08:18:44.411Z,1025.39
2022-10-06T08:19:20.505Z,1025.40
2022-10-06T08:20:20.472Z,1025.69
2022-10-06T08:21:20.437Z,1025.76
2022-10-06T08:22:20.401Z,1025.42
2022-10-06T08:23:20.369Z,1025.78
2022-10-06T08:24:20.352Z,1025.51
2022-10-06T08:25:20.303Z,1025.73
2022-10-06T08:26:20.269Z,1025.47
2022-10-06T08:27:20.246Z,1025.57
2022-10-06T08:28:20.250Z,1025.44
2022-10-06T08:29:20.183Z,1025.46
2022-10-06T08:30:20.137Z,1025.82
2022-10-06T08:31:20.179Z,1025.86
2022-10-06T08:32:20.072Z,1025.85
2022-10-06T08:33:21.409Z,1025.50
2022-10-06T08:34:20.013Z,1025.67
2022-10-06T08:35:19.982Z,1025.53
2022-10-06T08:36:19.954Z,1025.53
2022-10-06T08:37:20.572Z,1025.65
2022-10-06T08:38:19.875Z,1025.72
2022-10-06T08:39:19.843Z,1025.55
2022-10-06T08:40:19.807Z,1025.52
2022-10-06T08:41:19.787Z,1025.54
2022-10-06T08:42:19.742Z,1025.85
2022-10-06T08:43:19.711Z,1025.50
2022-10-06T08:44:19.757Z,1025.58
2022-10-06T08:45:19.647Z,1025.54
2022-10-06T08:46:22.367Z,1025.48
2022-10-06T08:47:28.642Z,1025.84
2022-10-06T08:48:19.546Z,1025.50
2022-10-06T08:49:19.578Z,1025.89
2022-10-06T08:50:19.479Z,1025.54
2022-10-06T08:51:19.488Z,1025.87
2022-10-06T08:52:19.415Z,1025.50
2022-10-06T08:53:19.395Z,1025.82
2022-10-06T08:54:19.349Z,1025.52
2022-10-06T08:55:19.316Z,1025.52
2022-10-06T08:56:19.282Z,1025.52
2022-10-06T08:57:19.295Z,1025.53
2022-10-06T08:58:20.140Z,1025.51
2022-10-06T08:59:20.085Z,1025.60
2022-10-06T09:00:22.046Z,1025.85
2022-10-06T09:01:19.144Z,1025.50
2022-10-06T09:02:19.125Z,1025.53
2022-10-06T09:03:19.053Z,1025.51
2022-10-06T09:04:19.019Z,1025.86
2022-10-06T09:05:18.999Z,1025.90
2022-10-06T09:06:18.967Z,1025.92
2022-10-06T09:07:18.923Z,1025.50
2022-10-06T09:08:18.930Z,1025.46
2022-10-06T09:09:18.856Z,1025.46
2022-10-06T09:10:18.908Z,1025.83
2022-10-06T09:11:18.802Z,1025.47
2022-10-06T09:12:18.755Z,1025.73
2022-10-06T09:13:21.927Z,1025.48
2022-10-06T09:14:18.692Z,1025.51
2022-10-06T09:15:18.660Z,1025.49
2022-10-06T09:16:18.659Z,1025.87
2022-10-06T09:17:18.613Z,1025.82
2022-10-06T09:18:18.561Z,1025.89
2022-10-06T09:19:18.529Z,1025.91
2022-10-06T09:20:18.527Z,1025.68
2022-10-06T09:21:18.474Z,1025.53
2022-10-06T09:22:18.448Z,1025.87
2022-10-06T09:23:18.403Z,1025.72
2022-10-06T09:24:18.398Z,1026.03
2022-10-06T09:25:18.335Z,1025.70
2022-10-06T09:26:18.299Z,1026.00
2022-10-06T09:27:18.291Z,1025.73
2022-10-06T09:28:18.264Z,1025.71
2022-10-06T09:29:18.205Z,1025.67
2022-10-06T09:30:18.203Z,1025.70
2022-10-06T09:31:18.166Z,1026.05
2022-10-06T09:32:18.117Z,1025.72
2022-10-06T09:33:18.084Z,1025.92
2022-10-06T09:34:18.041Z,1026.08
2022-10-06T09:35:18.013Z,1025.93
2022-10-06T09:36:17.977Z,1026.13
2022-10-06T09:37:17.957Z,1025.73
2022-10-06T09:38:17.913Z,1025.82
2022-10-06T09:39:17.882Z,1025.84
2022-10-06T09:40:17.856Z,1025.86
2022-10-06T09:41:17.832Z,1025.86
2022-10-06T09:42:17.786Z,1025.89
2022-10-06T09:43:17.756Z,1025.88
2022-10-06T09:44:17.723Z,1025.57
2022-10-06T09:45:17.701Z,1025.68
2022-10-06T09:46:17.669Z,1025.66
2022-10-06T09:47:17.627Z,1025.87
2022-10-06T09:48:19.018Z,1025.84
2022-10-06T09:49:17.563Z,1025.85
2022-10-06T09:50:17.764Z,1025.85
2022-10-06T09:51:17.503Z,1025.90
2022-10-06T09:52:17.466Z,1025.59
2022-10-06T09:53:17.433Z,1025.40
2022-10-06T09:54:17.401Z,1025.89
2022-10-06T09:55:17.380Z,1026.24
2022-10-06T09:56:17.337Z,1026.12
2022-10-06T09:57:17.307Z,1025.98
2022-10-06T09:58:17.271Z,1025.46
2022-10-06T09:59:17.238Z,1025.46
2022-10-06T10:00:17.218Z,1025.84
2022-10-06T10:01:17.220Z,1025.56
2022-10-06T10:02:17.148Z,1025.43
2022-10-06T10:03:17.199Z,1025.88
2022-10-06T10:04:21.540Z,1025.90
2022-10-06T10:05:17.043Z,1025.64
2022-10-06T10:06:17.019Z,1026.21
2022-10-06T10:07:16.981Z,1026.00
2022-10-06T10:08:16.945Z,1025.86
2022-10-06T10:09:19.058Z,1026.22
2022-10-06T10:10:16.877Z,1026.30
2022-10-06T10:11:16.879Z,1025.95
2022-10-06T10:12:16.833Z,1025.95
2022-10-06T10:13:16.780Z,1025.99
2022-10-06T10:14:16.753Z,1025.94
2022-10-06T10:15:16.713Z,1025.92
2022-10-06T10:16:16.753Z,1025.96
2022-10-06T10:17:16.657Z,1026.29
2022-10-06T10:18:16.614Z,1025.89
2022-10-06T10:19:16.582Z,1025.95
2022-10-06T10:20:16.554Z,1026.19
2022-10-06T10:21:16.516Z,1025.91
2022-10-06T10:22:16.484Z,1025.99
2022-10-06T10:23:16.463Z,1026.30
2022-10-06T10:24:16.417Z,1025.99
2022-10-06T10:25:16.385Z,1025.93
2022-10-06T10:26:16.352Z,1026.00
2022-10-06T10:27:16.322Z,1026.29
2022-10-06T10:28:16.325Z,1025.92
2022-10-06T10:29:16.265Z,1025.87
2022-10-06T10:30:16.221Z,1025.92
2022-10-06T10:31:16.237Z,1026.14
2022-10-06T10:32:16.157Z,1026.00
2022-10-06T10:33:16.148Z,1026.25
2022-10-06T10:34:26.018Z,1026.01
2022-10-06T10:35:16.070Z,1026.08
2022-10-06T10:36:16.029Z,1026.30
2022-10-06T10:37:15.995Z,1026.07
2022-10-06T10:38:15.963Z,1026.00
2022-10-06T10:39:15.931Z,1025.98
2022-10-06T10:40:15.911Z,1026.26
2022-10-06T10:41:15.867Z,1026.03
2022-10-06T10:42:15.837Z,1026.00
2022-10-06T10:43:15.804Z,1026.29
2022-10-06T10:44:15.772Z,1026.27
2022-10-06T10:45:15.740Z,1026.31
2022-10-06T10:46:15.767Z,1025.94
2022-10-06T10:47:15.673Z,1025.93
2022-10-06T10:48:15.643Z,1025.95
2022-10-06T10:49:15.610Z,1025.92
2022-10-06T10:50:15.579Z,1025.98
2022-10-06T10:51:15.558Z,1026.07
2022-10-06T10:52:15.515Z,1025.93
2022-10-06T10:53:15.560Z,1025.91
2022-10-06T10:54:15.461Z,1025.95
2022-10-06T10:55:15.421Z,1025.99
2022-10-06T10:56:15.386Z,1025.98
2022-10-06T10:57:15.369Z,1025.98
2022-10-06T10:58:15.323Z,1026.34
2022-10-06T10:59:15.288Z,1025.97
2022-10-06T11:00:15.258Z,1026.00
2022-10-06T11:01:15.242Z,1025.99
2022-10-06T11:02:15.252Z,1026.09
2022-10-06T11:03:15.160Z,1025.96
2022-10-06T11:04:15.130Z,1025.94
2022-10-06T11:05:15.095Z,1025.94
2022-10-06T11:06:15.076Z,1025.94
2022-10-06T11:07:15.044Z,1025.98
2022-10-06T11:08:15.010Z,1026.25
2022-10-06T11:09:14.967Z,1025.93
2022-10-06T11:10:14.943Z,1025.91
2022-10-06T11:11:14.907Z,1025.98
2022-10-06T11:12:14.883Z,1026.24
2022-10-06T11:13:14.840Z,1026.37
2022-10-06T11:14:14.810Z,1025.92
2022-10-06T11:15:14.780Z,1026.12
2022-10-06T11:16:14.813Z,1026.15
2022-10-06T11:17:14.713Z,1026.12
2022-10-06T11:18:17.136Z,1026.12
2022-10-06T11:19:14.649Z,1025.60
2022-10-06T11:20:14.622Z,1025.98
2022-10-06T11:21:14.582Z,1026.05
2022-10-06T11:22:14.551Z,1026.13
2022-10-06T11:23:14.518Z,1026.16
2022-10-06T11:24:14.500Z,1026.20
2022-10-06T11:25:14.457Z,1026.02
2022-10-06T11:26:14.486Z,1025.93
2022-10-06T11:27:14.396Z,1025.79
2022-10-06T11:28:14.387Z,1025.97
2022-10-06T11:29:14.321Z,1026.07
2022-10-06T11:30:14.287Z,1026.04
2022-10-06T11:31:16.682Z,1025.99
2022-10-06T11:32:14.236Z,1026.10
2022-10-06T11:33:14.191Z,1026.12
2022-10-06T11:34:14.164Z,1026.10
2022-10-06T11:35:14.126Z,1025.96
2022-10-06T11:36:14.092Z,1026.00
2022-10-06T11:37:14.062Z,1026.27
2022-10-06T11:38:14.037Z,1026.13
2022-10-06T11:39:13.994Z,1025.87
2022-10-06T11:40:13.980Z,1026.20
2022-10-06T11:41:13.932Z,1025.77
2022-10-06T11:42:13.899Z,1025.84
2022-10-06T11:43:13.872Z,1025.91
2022-10-06T11:44:13.872Z,1025.86
2022-10-06T11:45:13.803Z,1025.86
2022-10-06T11:46:13.806Z,1025.89
2022-10-06T11:47:13.737Z,1026.27
2022-10-06T11:48:13.839Z,1025.87
2022-10-06T11:49:13.670Z,1026.26
2022-10-06T11:50:13.634Z,1025.91
2022-10-06T11:51:13.602Z,1026.01
2022-10-06T11:52:13.572Z,1025.82
2022-10-06T11:53:13.552Z,1025.92
2022-10-06T11:54:13.505Z,1025.97
2022-10-06T11:55:13.474Z,1025.91
2022-10-06T11:56:13.460Z,1025.88
2022-10-06T11:57:13.455Z,1025.94
2022-10-06T11:58:30.243Z,1025.87
2022-10-06T11:59:13.371Z,1025.89
2022-10-06T12:00:13.309Z,1025.83
2022-10-06T12:01:13.282Z,1025.92
2022-10-06T12:02:13.335Z,1025.87
2022-10-06T12:03:13.277Z,1025.86
2022-10-06T12:04:13.204Z,1025.86
2022-10-06T12:05:49.390Z,1025.84